TimePST,TemperatureF,Dew PointF,Humidity,Sea Level PressureIn,VisibilityMPH,Wind Direction,Wind SpeedMPH,Gust SpeedMPH,PrecipitationIn,Events,Conditions,WindDirDegrees,DateUTC
12:56 AM,27.0,25.0,92,30.29,10.0,ESE,4.6,-,N/A,,Clear,110,2013-02-03 08:56:00
1:56 AM,30.0,27.0,88,30.28,10.0,ESE,4.6,-,N/A,,Clear,110,2013-02-03 09:56:00
3:56 AM,27.0,25.0,92,30.28,10.0,ESE,4.6,-,N/A,,Clear,120,2013-02-03 11:56:00
4:56 AM,26.1,23.0,88,30.28,10.0,Calm,Calm,-,N/A,,Clear,0,2013-02-03 12:56:00
5:56 AM,21.9,21.0,96,30.29,10.0,Calm,Calm,-,N/A,,Clear,0,2013-02-03 13:56:00
6:56 AM,24.1,21.9,91,30.30,10.0,NNE,4.6,-,N/A,,Clear,20,2013-02-03 14:56:00
7:56 AM,26.1,21.9,84,30.31,10.0,Calm,Calm,-,N/A,,Clear,0,2013-02-03 15:56:00
8:56 AM,33.1,28.0,82,30.31,10.0,SE,5.8,-,N/A,,Clear,140,2013-02-03 16:56:00
9:56 AM,39.9,30.0,68,30.28,10.0,Calm,Calm,-,N/A,,Clear,0,2013-02-03 17:56:00
10:56 AM,46.0,30.0,54,30.26,10.0,Calm,Calm,-,N/A,,Clear,0,2013-02-03 18:56:00
11:56 AM,48.9,30.0,48,30.24,10.0,East,4.6,-,N/A,,Clear,80,2013-02-03 19:56:00
12:56 PM,53.1,27.0,37,30.21,10.0,NNE,3.5,-,N/A,,Clear,30,2013-02-03 20:56:00
1:56 PM,55.0,28.9,37,30.17,10.0,East,4.6,-,N/A,,Clear,80,2013-02-03 21:56:00
2:56 PM,55.0,24.1,30,30.17,10.0,Calm,Calm,-,N/A,,Clear,0,2013-02-03 22:56:00
3:56 PM,54.0,26.1,34,30.17,10.0,Calm,Calm,-,N/A,,Clear,0,2013-02-03 23:56:00
4:56 PM,46.0,26.1,46,30.19,10.0,Calm,Calm,-,N/A,,Clear,0,2013-02-04 00:56:00
5:56 PM,39.9,28.0,63,30.21,10.0,Calm,Calm,-,N/A,,Clear,0,2013-02-04 01:56:00
6:56 PM,37.9,28.0,68,30.21,10.0,SSE,5.8,-,N/A,,Clear,150,2013-02-04 02:56:00
7:56 PM,39.9,28.0,63,30.20,10.0,SSE,4.6,-,N/A,,Scattered Clouds,160,2013-02-04 03:56:00
8:56 PM,37.9,28.0,68,30.20,10.0,SE,3.5,-,N/A,,Mostly Cloudy,130,2013-02-04 04:56:00
9:56 PM,39.0,28.0,65,30.18,10.0,Calm,Calm,-,N/A,,Overcast,0,2013-02-04 05:56:00
10:56 PM,34.0,27.0,75,30.17,10.0,Calm,Calm,-,N/A,,Mostly Cloudy,0,2013-02-04 06:56:00
11:56 PM,37.0,28.0,70,30.15,10.0,NE,4.6,-,N/A,,Scattered Clouds,50,2013-02-04 07:56:00